Terminal Aerodrome Forecast
Issued by NWS

Home | Current Version | Previous Version | Text Only | Print | Product List | Glossary On
Versions: 1 2 3 4 5 6 7 8 9 10 11 12
000
FTUS46 KSGX 172300
TAFSNA
TAF
KSNA 172328Z 1800/1824 22008KT P6SM FEW100
     FM180200 VRB04KT P6SM SKC
      TEMPO 1813/1816 BKN010
     FM181900 23009KT P6SM SCT015=

USA.gov is the U.S. government's official web portal to all federal, state and local government web resources and services.